sensor_id;sensor_type;location;lat;lon;timestamp;P1;durP1;ratioP1;P2;durP2;ratioP2
69894;SDS011;57172;52.034;5.090;2023-04-06T00:00:55;21.95;;;11.25;;
69894;SDS011;57172;52.034;5.090;2023-04-06T00:03:22;20.17;;;10.90;;
69894;SDS011;57172;52.034;5.090;2023-04-06T00:05:49;21.80;;;10.93;;
69894;SDS011;57172;52.034;5.090;2023-04-06T00:08:16;18.88;;;10.30;;
69894;SDS011;57172;52.034;5.090;2023-04-06T00:10:43;18.75;;;10.73;;
69894;SDS011;57172;52.034;5.090;2023-04-06T00:13:10;21.05;;;10.70;;
69894;SDS011;57172;52.034;5.090;2023-04-06T00:15:37;21.75;;;10.98;;
69894;SDS011;57172;52.034;5.090;2023-04-06T00:18:04;19.90;;;10.93;;
69894;SDS011;57172;52.034;5.090;2023-04-06T00:20:31;19.73;;;10.35;;
69894;SDS011;57172;52.034;5.090;2023-04-06T00:22:58;19.55;;;10.73;;
69894;SDS011;57172;52.034;5.090;2023-04-06T00:25:25;19.45;;;10.60;;
69894;SDS011;57172;52.034;5.090;2023-04-06T00:27:52;20.23;;;11.07;;
69894;SDS011;57172;52.034;5.090;2023-04-06T00:30:19;19.85;;;10.48;;
69894;SDS011;57172;52.034;5.090;2023-04-06T00:32:46;17.50;;;9.93;;
69894;SDS011;57172;52.034;5.090;2023-04-06T00:35:13;19.70;;;10.45;;
69894;SDS011;57172;52.034;5.090;2023-04-06T00:37:42;20.02;;;10.77;;
69894;SDS011;57172;52.034;5.090;2023-04-06T00:40:08;20.17;;;10.20;;
69894;SDS011;57172;52.034;5.090;2023-04-06T00:42:36;19.33;;;10.50;;
69894;SDS011;57172;52.034;5.090;2023-04-06T00:45:03;17.75;;;9.80;;
69894;SDS011;57172;52.034;5.090;2023-04-06T00:47:30;20.23;;;10.32;;
69894;SDS011;57172;52.034;5.090;2023-04-06T00:49:57;20.65;;;10.38;;
69894;SDS011;57172;52.034;5.090;2023-04-06T00:52:24;20.20;;;10.35;;
69894;SDS011;57172;52.034;5.090;2023-04-06T00:54:52;22.70;;;9.95;;
69894;SDS011;57172;52.034;5.090;2023-04-06T00:57:21;19.45;;;10.30;;
69894;SDS011;57172;52.034;5.090;2023-04-06T00:59:53;19.63;;;10.00;;
69894;SDS011;57172;52.034;5.090;2023-04-06T01:02:20;19.63;;;10.65;;
69894;SDS011;57172;52.034;5.090;2023-04-06T01:04:50;21.05;;;9.85;;
69894;SDS011;57172;52.034;5.090;2023-04-06T01:07:29;22.35;;;10.73;;
69894;SDS011;57172;52.034;5.090;2023-04-06T01:10:10;19.05;;;10.48;;
69894;SDS011;57172;52.034;5.090;2023-04-06T01:12:37;19.42;;;10.85;;
69894;SDS011;57172;52.034;5.090;2023-04-06T01:15:12;18.55;;;10.35;;
69894;SDS011;57172;52.034;5.090;2023-04-06T01:17:42;21.33;;;11.73;;
69894;SDS011;57172;52.034;5.090;2023-04-06T01:20:13;19.90;;;10.63;;
69894;SDS011;57172;52.034;5.090;2023-04-06T01:22:40;19.80;;;10.27;;
69894;SDS011;57172;52.034;5.090;2023-04-06T01:25:08;17.55;;;9.90;;
69894;SDS011;57172;52.034;5.090;2023-04-06T01:27:45;17.92;;;10.18;;
69894;SDS011;57172;52.034;5.090;2023-04-06T01:30:22;21.00;;;10.32;;
69894;SDS011;57172;52.034;5.090;2023-04-06T01:33:03;20.77;;;10.30;;
69894;SDS011;57172;52.034;5.090;2023-04-06T01:35:50;19.35;;;10.23;;
69894;SDS011;57172;52.034;5.090;2023-04-06T01:38:19;19.10;;;10.27;;
69894;SDS011;57172;52.034;5.090;2023-04-06T01:40:47;20.45;;;9.77;;
69894;SDS011;57172;52.034;5.090;2023-04-06T01:43:16;19.67;;;10.48;;
69894;SDS011;57172;52.034;5.090;2023-04-06T01:46:00;20.90;;;10.15;;
69894;SDS011;57172;52.034;5.090;2023-04-06T01:48:32;18.90;;;10.50;;
69894;SDS011;57172;52.034;5.090;2023-04-06T01:51:06;18.60;;;10.05;;
69894;SDS011;57172;52.034;5.090;2023-04-06T01:53:41;18.02;;;9.60;;
69894;SDS011;57172;52.034;5.090;2023-04-06T01:56:08;16.47;;;8.67;;
69894;SDS011;57172;52.034;5.090;2023-04-06T01:58:39;19.02;;;9.60;;
69894;SDS011;57172;52.034;5.090;2023-04-06T02:01:06;17.20;;;9.25;;
69894;SDS011;57172;52.034;5.090;2023-04-06T02:03:46;17.58;;;9.00;;
69894;SDS011;57172;52.034;5.090;2023-04-06T02:06:13;17.98;;;9.27;;
69894;SDS011;57172;52.034;5.090;2023-04-06T02:08:40;18.23;;;9.00;;
69894;SDS011;57172;52.034;5.090;2023-04-06T02:11:07;18.33;;;9.43;;
69894;SDS011;57172;52.034;5.090;2023-04-06T02:13:42;18.27;;;8.90;;
69894;SDS011;57172;52.034;5.090;2023-04-06T02:16:10;17.45;;;9.50;;
69894;SDS011;57172;52.034;5.090;2023-04-06T02:18:37;21.17;;;9.52;;
69894;SDS011;57172;52.034;5.090;2023-04-06T02:21:04;18.50;;;9.90;;
69894;SDS011;57172;52.034;5.090;2023-04-06T02:23:31;18.95;;;9.57;;
69894;SDS011;57172;52.034;5.090;2023-04-06T02:25:58;18.10;;;9.80;;
69894;SDS011;57172;52.034;5.090;2023-04-06T02:28:26;16.98;;;9.10;;
69894;SDS011;57172;52.034;5.090;2023-04-06T02:30:53;22.35;;;10.02;;
69894;SDS011;57172;52.034;5.090;2023-04-06T02:33:24;18.80;;;9.90;;
69894;SDS011;57172;52.034;5.090;2023-04-06T02:35:51;19.55;;;9.93;;
69894;SDS011;57172;52.034;5.090;2023-04-06T02:38:18;17.92;;;9.93;;
69894;SDS011;57172;52.034;5.090;2023-04-06T02:40:45;18.45;;;9.98;;
69894;SDS011;57172;52.034;5.090;2023-04-06T02:43:21;19.58;;;10.15;;
69894;SDS011;57172;52.034;5.090;2023-04-06T02:45:52;17.70;;;9.98;;
69894;SDS011;57172;52.034;5.090;2023-04-06T02:48:21;16.77;;;9.60;;
69894;SDS011;57172;52.034;5.090;2023-04-06T02:50:47;19.70;;;10.70;;
69894;SDS011;57172;52.034;5.090;2023-04-06T02:53:14;17.95;;;10.40;;
69894;SDS011;57172;52.034;5.090;2023-04-06T02:55:42;19.05;;;10.40;;
69894;SDS011;57172;52.034;5.090;2023-04-06T02:58:08;18.52;;;10.43;;
69894;SDS011;57172;52.034;5.090;2023-04-06T03:00:43;20.75;;;10.38;;
69894;SDS011;57172;52.034;5.090;2023-04-06T03:03:10;21.48;;;10.77;;
69894;SDS011;57172;52.034;5.090;2023-04-06T03:05:37;20.30;;;10.48;;
69894;SDS011;57172;52.034;5.090;2023-04-06T03:08:05;18.77;;;10.38;;
69894;SDS011;57172;52.034;5.090;2023-04-06T03:10:40;19.30;;;10.63;;
69894;SDS011;57172;52.034;5.090;2023-04-06T03:13:07;24.15;;;10.43;;
69894;SDS011;57172;52.034;5.090;2023-04-06T03:15:46;22.95;;;10.32;;
69894;SDS011;57172;52.034;5.090;2023-04-06T03:18:20;20.67;;;10.52;;
69894;SDS011;57172;52.034;5.090;2023-04-06T03:20:50;21.33;;;10.40;;
69894;SDS011;57172;52.034;5.090;2023-04-06T03:23:22;18.90;;;9.85;;
69894;SDS011;57172;52.034;5.090;2023-04-06T03:25:54;22.52;;;9.73;;
69894;SDS011;57172;52.034;5.090;2023-04-06T03:28:22;22.75;;;9.98;;
69894;SDS011;57172;52.034;5.090;2023-04-06T03:30:53;20.15;;;9.75;;
69894;SDS011;57172;52.034;5.090;2023-04-06T03:33:47;18.67;;;9.35;;
69894;SDS011;57172;52.034;5.090;2023-04-06T03:36:20;22.23;;;10.80;;
69894;SDS011;57172;52.034;5.090;2023-04-06T03:38:47;25.92;;;10.90;;
69894;SDS011;57172;52.034;5.090;2023-04-06T03:41:14;22.10;;;10.60;;
69894;SDS011;57172;52.034;5.090;2023-04-06T03:43:47;20.45;;;11.32;;
69894;SDS011;57172;52.034;5.090;2023-04-06T03:46:14;21.70;;;10.90;;
69894;SDS011;57172;52.034;5.090;2023-04-06T03:48:41;20.20;;;11.33;;
69894;SDS011;57172;52.034;5.090;2023-04-06T03:51:08;22.08;;;12.07;;
69894;SDS011;57172;52.034;5.090;2023-04-06T03:53:34;22.42;;;11.52;;
69894;SDS011;57172;52.034;5.090;2023-04-06T03:56:03;21.30;;;11.93;;
69894;SDS011;57172;52.034;5.090;2023-04-06T03:58:31;22.13;;;11.77;;
69894;SDS011;57172;52.034;5.090;2023-04-06T04:00:57;22.73;;;12.33;;
69894;SDS011;57172;52.034;5.090;2023-04-06T04:03:24;23.85;;;11.50;;
69894;SDS011;57172;52.034;5.090;2023-04-06T04:05:54;24.05;;;12.13;;
69894;SDS011;57172;52.034;5.090;2023-04-06T04:08:24;25.27;;;11.82;;
69894;SDS011;57172;52.034;5.090;2023-04-06T04:10:51;27.55;;;12.10;;
69894;SDS011;57172;52.034;5.090;2023-04-06T04:13:19;23.00;;;11.80;;
69894;SDS011;57172;52.034;5.090;2023-04-06T04:15:48;21.42;;;10.80;;
69894;SDS011;57172;52.034;5.090;2023-04-06T04:18:15;24.23;;;11.77;;
69894;SDS011;57172;52.034;5.090;2023-04-06T04:20:42;25.40;;;12.07;;
69894;SDS011;57172;52.034;5.090;2023-04-06T04:23:10;21.17;;;11.07;;
69894;SDS011;57172;52.034;5.090;2023-04-06T04:25:37;21.58;;;11.68;;
69894;SDS011;57172;52.034;5.090;2023-04-06T04:28:05;22.75;;;11.27;;
69894;SDS011;57172;52.034;5.090;2023-04-06T04:30:32;23.00;;;11.95;;
69894;SDS011;57172;52.034;5.090;2023-04-06T04:32:59;22.88;;;11.25;;
69894;SDS011;57172;52.034;5.090;2023-04-06T04:35:27;21.75;;;10.30;;
69894;SDS011;57172;52.034;5.090;2023-04-06T04:37:54;25.47;;;12.10;;
69894;SDS011;57172;52.034;5.090;2023-04-06T04:40:21;24.75;;;11.52;;
69894;SDS011;57172;52.034;5.090;2023-04-06T04:42:53;23.63;;;11.77;;
69894;SDS011;57172;52.034;5.090;2023-04-06T04:45:26;24.10;;;12.20;;
69894;SDS011;57172;52.034;5.090;2023-04-06T04:47:54;24.15;;;12.50;;
69894;SDS011;57172;52.034;5.090;2023-04-06T04:50:24;22.03;;;11.73;;
69894;SDS011;57172;52.034;5.090;2023-04-06T04:52:55;25.73;;;12.38;;
69894;SDS011;57172;52.034;5.090;2023-04-06T04:55:24;23.90;;;12.32;;
69894;SDS011;57172;52.034;5.090;2023-04-06T04:57:55;26.23;;;12.48;;
69894;SDS011;57172;52.034;5.090;2023-04-06T05:00:32;24.17;;;12.15;;
69894;SDS011;57172;52.034;5.090;2023-04-06T05:02:59;22.77;;;12.75;;
69894;SDS011;57172;52.034;5.090;2023-04-06T05:05:29;28.90;;;12.75;;
69894;SDS011;57172;52.034;5.090;2023-04-06T05:07:57;25.00;;;12.52;;
69894;SDS011;57172;52.034;5.090;2023-04-06T05:10:35;23.77;;;12.40;;
69894;SDS011;57172;52.034;5.090;2023-04-06T05:13:03;23.77;;;12.40;;
69894;SDS011;57172;52.034;5.090;2023-04-06T05:15:30;24.77;;;12.53;;
69894;SDS011;57172;52.034;5.090;2023-04-06T05:18:04;26.80;;;12.63;;
69894;SDS011;57172;52.034;5.090;2023-04-06T05:20:34;23.98;;;12.82;;
69894;SDS011;57172;52.034;5.090;2023-04-06T05:23:01;22.70;;;11.80;;
69894;SDS011;57172;52.034;5.090;2023-04-06T05:25:29;26.10;;;12.52;;
69894;SDS011;57172;52.034;5.090;2023-04-06T05:28:03;21.95;;;11.18;;
69894;SDS011;57172;52.034;5.090;2023-04-06T05:30:33;25.02;;;13.18;;
69894;SDS011;57172;52.034;5.090;2023-04-06T05:33:02;26.10;;;13.35;;
69894;SDS011;57172;52.034;5.090;2023-04-06T05:35:39;26.83;;;12.90;;
69894;SDS011;57172;52.034;5.090;2023-04-06T05:38:10;25.45;;;12.70;;
69894;SDS011;57172;52.034;5.090;2023-04-06T05:40:37;23.38;;;13.02;;
69894;SDS011;57172;52.034;5.090;2023-04-06T05:43:07;25.42;;;13.30;;
69894;SDS011;57172;52.034;5.090;2023-04-06T05:45:36;23.33;;;12.30;;
69894;SDS011;57172;52.034;5.090;2023-04-06T05:48:04;26.67;;;12.82;;
69894;SDS011;57172;52.034;5.090;2023-04-06T05:50:32;25.25;;;12.68;;
69894;SDS011;57172;52.034;5.090;2023-04-06T05:52:59;28.70;;;12.53;;
69894;SDS011;57172;52.034;5.090;2023-04-06T05:55:32;30.70;;;12.10;;
69894;SDS011;57172;52.034;5.090;2023-04-06T05:58:09;26.48;;;12.88;;
69894;SDS011;57172;52.034;5.090;2023-04-06T06:00:36;24.20;;;12.60;;
69894;SDS011;57172;52.034;5.090;2023-04-06T06:03:05;35.65;;;13.60;;
69894;SDS011;57172;52.034;5.090;2023-04-06T06:05:35;29.60;;;12.98;;
69894;SDS011;57172;52.034;5.090;2023-04-06T06:08:10;28.73;;;13.07;;
69894;SDS011;57172;52.034;5.090;2023-04-06T06:10:38;26.23;;;11.60;;
69894;SDS011;57172;52.034;5.090;2023-04-06T06:13:08;35.10;;;12.05;;
69894;SDS011;57172;52.034;5.090;2023-04-06T06:15:36;33.08;;;13.18;;
69894;SDS011;57172;52.034;5.090;2023-04-06T06:18:03;29.77;;;12.80;;
69894;SDS011;57172;52.034;5.090;2023-04-06T06:20:30;20.73;;;10.52;;
69894;SDS011;57172;52.034;5.090;2023-04-06T06:23:00;23.50;;;11.15;;
69894;SDS011;57172;52.034;5.090;2023-04-06T06:25:27;23.65;;;12.10;;
69894;SDS011;57172;52.034;5.090;2023-04-06T06:27:57;24.73;;;10.95;;
69894;SDS011;57172;52.034;5.090;2023-04-06T06:30:26;24.50;;;12.30;;
69894;SDS011;57172;52.034;5.090;2023-04-06T06:32:53;27.55;;;12.80;;
69894;SDS011;57172;52.034;5.090;2023-04-06T06:35:21;30.50;;;12.35;;
69894;SDS011;57172;52.034;5.090;2023-04-06T06:37:48;25.98;;;12.40;;
69894;SDS011;57172;52.034;5.090;2023-04-06T06:40:19;20.67;;;10.30;;
69894;SDS011;57172;52.034;5.090;2023-04-06T06:42:51;23.00;;;11.90;;
69894;SDS011;57172;52.034;5.090;2023-04-06T06:45:37;22.90;;;11.27;;
69894;SDS011;57172;52.034;5.090;2023-04-06T06:48:04;23.35;;;10.30;;
69894;SDS011;57172;52.034;5.090;2023-04-06T06:50:31;30.70;;;12.27;;
69894;SDS011;57172;52.034;5.090;2023-04-06T06:52:58;26.48;;;12.73;;
69894;SDS011;57172;52.034;5.090;2023-04-06T06:55:25;24.83;;;12.60;;
69894;SDS011;57172;52.034;5.090;2023-04-06T06:57:53;23.05;;;11.32;;
69894;SDS011;57172;52.034;5.090;2023-04-06T07:00:20;25.60;;;12.60;;
69894;SDS011;57172;52.034;5.090;2023-04-06T07:02:48;24.52;;;12.32;;
69894;SDS011;57172;52.034;5.090;2023-04-06T07:05:16;24.52;;;11.25;;
69894;SDS011;57172;52.034;5.090;2023-04-06T07:07:55;27.63;;;13.67;;
69894;SDS011;57172;52.034;5.090;2023-04-06T07:10:22;26.85;;;13.10;;
69894;SDS011;57172;52.034;5.090;2023-04-06T07:12:49;24.70;;;13.40;;
69894;SDS011;57172;52.034;5.090;2023-04-06T07:15:16;26.02;;;13.25;;
69894;SDS011;57172;52.034;5.090;2023-04-06T07:17:43;26.38;;;13.57;;
69894;SDS011;57172;52.034;5.090;2023-04-06T07:20:12;25.37;;;13.30;;
69894;SDS011;57172;52.034;5.090;2023-04-06T07:22:39;26.40;;;13.68;;
69894;SDS011;57172;52.034;5.090;2023-04-06T07:25:08;29.83;;;13.15;;
69894;SDS011;57172;52.034;5.090;2023-04-06T07:27:35;25.02;;;13.70;;
69894;SDS011;57172;52.034;5.090;2023-04-06T07:30:02;30.25;;;13.73;;
69894;SDS011;57172;52.034;5.090;2023-04-06T07:32:30;27.80;;;13.63;;
69894;SDS011;57172;52.034;5.090;2023-04-06T07:34:57;27.67;;;14.13;;
69894;SDS011;57172;52.034;5.090;2023-04-06T07:37:24;31.10;;;14.32;;
69894;SDS011;57172;52.034;5.090;2023-04-06T07:39:51;27.75;;;13.48;;
69894;SDS011;57172;52.034;5.090;2023-04-06T07:42:18;25.90;;;13.38;;
69894;SDS011;57172;52.034;5.090;2023-04-06T07:44:45;27.33;;;13.13;;
69894;SDS011;57172;52.034;5.090;2023-04-06T07:47:14;25.77;;;13.70;;
69894;SDS011;57172;52.034;5.090;2023-04-06T07:49:41;26.52;;;13.18;;
69894;SDS011;57172;52.034;5.090;2023-04-06T07:52:08;26.48;;;13.35;;
69894;SDS011;57172;52.034;5.090;2023-04-06T07:54:36;26.42;;;13.30;;
69894;SDS011;57172;52.034;5.090;2023-04-06T07:57:02;27.37;;;13.53;;
69894;SDS011;57172;52.034;5.090;2023-04-06T07:59:30;28.10;;;13.85;;
69894;SDS011;57172;52.034;5.090;2023-04-06T08:01:56;27.42;;;14.18;;
69894;SDS011;57172;52.034;5.090;2023-04-06T08:04:23;27.10;;;14.25;;
69894;SDS011;57172;52.034;5.090;2023-04-06T08:06:50;27.60;;;14.52;;
69894;SDS011;57172;52.034;5.090;2023-04-06T08:09:17;28.00;;;14.70;;
69894;SDS011;57172;52.034;5.090;2023-04-06T08:11:44;27.15;;;14.73;;
69894;SDS011;57172;52.034;5.090;2023-04-06T08:14:12;28.85;;;15.10;;
69894;SDS011;57172;52.034;5.090;2023-04-06T08:16:39;28.48;;;14.50;;
69894;SDS011;57172;52.034;5.090;2023-04-06T08:19:06;30.67;;;14.90;;
69894;SDS011;57172;52.034;5.090;2023-04-06T08:21:35;31.60;;;14.90;;
69894;SDS011;57172;52.034;5.090;2023-04-06T08:24:02;37.25;;;15.60;;
69894;SDS011;57172;52.034;5.090;2023-04-06T08:26:29;40.50;;;15.98;;
69894;SDS011;57172;52.034;5.090;2023-04-06T08:28:56;67.20;;;19.27;;
69894;SDS011;57172;52.034;5.090;2023-04-06T08:31:23;44.20;;;16.15;;
69894;SDS011;57172;52.034;5.090;2023-04-06T08:33:50;28.33;;;15.53;;
69894;SDS011;57172;52.034;5.090;2023-04-06T08:36:17;47.72;;;16.60;;
69894;SDS011;57172;52.034;5.090;2023-04-06T08:38:49;31.67;;;14.88;;
69894;SDS011;57172;52.034;5.090;2023-04-06T08:41:16;27.48;;;15.25;;
69894;SDS011;57172;52.034;5.090;2023-04-06T08:43:46;28.23;;;15.45;;
69894;SDS011;57172;52.034;5.090;2023-04-06T08:46:14;29.17;;;15.40;;
69894;SDS011;57172;52.034;5.090;2023-04-06T08:48:42;30.73;;;15.10;;
69894;SDS011;57172;52.034;5.090;2023-04-06T08:51:09;27.23;;;14.45;;
69894;SDS011;57172;52.034;5.090;2023-04-06T08:53:37;28.73;;;14.73;;
69894;SDS011;57172;52.034;5.090;2023-04-06T08:56:04;30.08;;;14.88;;
69894;SDS011;57172;52.034;5.090;2023-04-06T08:58:34;31.80;;;14.77;;
69894;SDS011;57172;52.034;5.090;2023-04-06T09:01:08;31.60;;;15.35;;
69894;SDS011;57172;52.034;5.090;2023-04-06T09:03:37;27.85;;;14.38;;
69894;SDS011;57172;52.034;5.090;2023-04-06T09:06:06;23.88;;;11.77;;
69894;SDS011;57172;52.034;5.090;2023-04-06T09:08:34;28.00;;;14.75;;
69894;SDS011;57172;52.034;5.090;2023-04-06T09:11:02;36.83;;;17.73;;
69894;SDS011;57172;52.034;5.090;2023-04-06T09:13:30;30.38;;;16.05;;
69894;SDS011;57172;52.034;5.090;2023-04-06T09:16:01;32.72;;;16.30;;
69894;SDS011;57172;52.034;5.090;2023-04-06T09:18:34;34.65;;;17.30;;
69894;SDS011;57172;52.034;5.090;2023-04-06T09:21:01;36.90;;;16.77;;
69894;SDS011;57172;52.034;5.090;2023-04-06T09:23:33;30.10;;;16.47;;
69894;SDS011;57172;52.034;5.090;2023-04-06T09:26:09;29.25;;;14.23;;
69894;SDS011;57172;52.034;5.090;2023-04-06T09:31:15;29.42;;;14.32;;
69894;SDS011;57172;52.034;5.090;2023-04-06T09:33:44;26.00;;;11.98;;
69894;SDS011;57172;52.034;5.090;2023-04-06T09:36:11;41.23;;;19.83;;
69894;SDS011;57172;52.034;5.090;2023-04-06T09:38:50;31.77;;;15.52;;
69894;SDS011;57172;52.034;5.090;2023-04-06T09:41:23;35.75;;;16.13;;
69894;SDS011;57172;52.034;5.090;2023-04-06T09:44:03;28.83;;;13.48;;
69894;SDS011;57172;52.034;5.090;2023-04-06T09:46:37;32.70;;;16.05;;
69894;SDS011;57172;52.034;5.090;2023-04-06T09:49:28;31.83;;;15.40;;
69894;SDS011;57172;52.034;5.090;2023-04-06T09:52:03;28.15;;;13.60;;
69894;SDS011;57172;52.034;5.090;2023-04-06T09:54:34;36.15;;;16.25;;
69894;SDS011;57172;52.034;5.090;2023-04-06T09:57:10;24.02;;;10.90;;
69894;SDS011;57172;52.034;5.090;2023-04-06T09:59:44;36.60;;;14.93;;
69894;SDS011;57172;52.034;5.090;2023-04-06T10:03:04;26.70;;;11.70;;
69894;SDS011;57172;52.034;5.090;2023-04-06T10:05:21;22.65;;;10.43;;
69894;SDS011;57172;52.034;5.090;2023-04-06T10:08:13;27.80;;;11.00;;
69894;SDS011;57172;52.034;5.090;2023-04-06T10:10:40;18.92;;;9.82;;
69894;SDS011;57172;52.034;5.090;2023-04-06T10:13:10;25.83;;;12.88;;
69894;SDS011;57172;52.034;5.090;2023-04-06T10:15:38;17.37;;;8.73;;
69894;SDS011;57172;52.034;5.090;2023-04-06T10:18:06;20.77;;;9.68;;
69894;SDS011;57172;52.034;5.090;2023-04-06T10:23:13;15.48;;;8.25;;
69894;SDS011;57172;52.034;5.090;2023-04-06T10:26:00;22.67;;;9.13;;
69894;SDS011;57172;52.034;5.090;2023-04-06T10:28:32;18.47;;;8.90;;
69894;SDS011;57172;52.034;5.090;2023-04-06T10:31:04;13.60;;;6.47;;
69894;SDS011;57172;52.034;5.090;2023-04-06T10:33:32;26.63;;;10.48;;
69894;SDS011;57172;52.034;5.090;2023-04-06T10:36:09;15.10;;;8.15;;
69894;SDS011;57172;52.034;5.090;2023-04-06T10:38:40;14.75;;;8.30;;
69894;SDS011;57172;52.034;5.090;2023-04-06T10:41:09;11.83;;;6.30;;
69894;SDS011;57172;52.034;5.090;2023-04-06T10:43:38;16.08;;;7.93;;
69894;SDS011;57172;52.034;5.090;2023-04-06T10:46:07;21.48;;;9.82;;
69894;SDS011;57172;52.034;5.090;2023-04-06T10:48:36;13.95;;;6.93;;
69894;SDS011;57172;52.034;5.090;2023-04-06T10:51:14;20.38;;;9.77;;
69894;SDS011;57172;52.034;5.090;2023-04-06T10:53:43;17.40;;;8.30;;
69894;SDS011;57172;52.034;5.090;2023-04-06T10:56:13;49.17;;;12.23;;
69894;SDS011;57172;52.034;5.090;2023-04-06T10:58:45;24.52;;;10.23;;
69894;SDS011;57172;52.034;5.090;2023-04-06T11:01:16;13.93;;;6.22;;
69894;SDS011;57172;52.034;5.090;2023-04-06T11:03:44;25.38;;;8.65;;
69894;SDS011;57172;52.034;5.090;2023-04-06T11:06:25;14.10;;;5.87;;
69894;SDS011;57172;52.034;5.090;2023-04-06T11:08:57;29.35;;;11.60;;
69894;SDS011;57172;52.034;5.090;2023-04-06T11:11:25;11.98;;;5.75;;
69894;SDS011;57172;52.034;5.090;2023-04-06T11:13:54;16.75;;;7.90;;
69894;SDS011;57172;52.034;5.090;2023-04-06T11:16:24;12.15;;;6.43;;
69894;SDS011;57172;52.034;5.090;2023-04-06T11:18:58;13.93;;;7.03;;
69894;SDS011;57172;52.034;5.090;2023-04-06T11:26:37;15.25;;;8.02;;
69894;SDS011;57172;52.034;5.090;2023-04-06T11:29:10;14.73;;;8.20;;
69894;SDS011;57172;52.034;5.090;2023-04-06T11:31:39;14.80;;;7.87;;
69894;SDS011;57172;52.034;5.090;2023-04-06T11:34:10;16.00;;;7.70;;
69894;SDS011;57172;52.034;5.090;2023-04-06T11:36:46;17.40;;;9.27;;
69894;SDS011;57172;52.034;5.090;2023-04-06T11:39:19;21.38;;;10.68;;
69894;SDS011;57172;52.034;5.090;2023-04-06T11:41:47;12.38;;;6.65;;
69894;SDS011;57172;52.034;5.090;2023-04-06T11:44:37;16.03;;;7.53;;
69894;SDS011;57172;52.034;5.090;2023-04-06T11:47:09;15.35;;;7.32;;
69894;SDS011;57172;52.034;5.090;2023-04-06T11:49:37;13.27;;;6.55;;
69894;SDS011;57172;52.034;5.090;2023-04-06T11:54:42;10.82;;;5.90;;
69894;SDS011;57172;52.034;5.090;2023-04-06T11:57:09;13.67;;;6.97;;
69894;SDS011;57172;52.034;5.090;2023-04-06T11:59:36;12.43;;;7.03;;
69894;SDS011;57172;52.034;5.090;2023-04-06T12:02:03;15.13;;;7.40;;
69894;SDS011;57172;52.034;5.090;2023-04-06T12:04:31;12.88;;;7.03;;
69894;SDS011;57172;52.034;5.090;2023-04-06T12:06:58;14.75;;;7.70;;
69894;SDS011;57172;52.034;5.090;2023-04-06T12:09:25;14.80;;;7.10;;
69894;SDS011;57172;52.034;5.090;2023-04-06T12:11:52;15.15;;;6.97;;
69894;SDS011;57172;52.034;5.090;2023-04-06T12:14:20;14.20;;;7.88;;
69894;SDS011;57172;52.034;5.090;2023-04-06T12:16:47;11.15;;;6.65;;
69894;SDS011;57172;52.034;5.090;2023-04-06T12:19:14;14.82;;;6.75;;
69894;SDS011;57172;52.034;5.090;2023-04-06T12:21:41;14.20;;;7.00;;
69894;SDS011;57172;52.034;5.090;2023-04-06T12:24:08;15.35;;;7.88;;
69894;SDS011;57172;52.034;5.090;2023-04-06T12:26:35;18.40;;;8.57;;
69894;SDS011;57172;52.034;5.090;2023-04-06T12:29:03;13.98;;;6.75;;
69894;SDS011;57172;52.034;5.090;2023-04-06T12:31:36;19.23;;;9.43;;
69894;SDS011;57172;52.034;5.090;2023-04-06T12:34:09;16.43;;;8.47;;
69894;SDS011;57172;52.034;5.090;2023-04-06T12:36:36;19.25;;;9.25;;
69894;SDS011;57172;52.034;5.090;2023-04-06T12:39:04;17.58;;;8.65;;
69894;SDS011;57172;52.034;5.090;2023-04-06T12:41:31;21.60;;;10.07;;
69894;SDS011;57172;52.034;5.090;2023-04-06T12:43:58;14.60;;;6.70;;
69894;SDS011;57172;52.034;5.090;2023-04-06T12:46:26;13.87;;;7.07;;
69894;SDS011;57172;52.034;5.090;2023-04-06T12:48:53;17.63;;;9.32;;
69894;SDS011;57172;52.034;5.090;2023-04-06T12:51:21;18.00;;;9.07;;
69894;SDS011;57172;52.034;5.090;2023-04-06T12:53:48;21.75;;;10.60;;
69894;SDS011;57172;52.034;5.090;2023-04-06T12:56:16;42.97;;;10.20;;
69894;SDS011;57172;52.034;5.090;2023-04-06T12:58:44;31.13;;;10.87;;
69894;SDS011;57172;52.034;5.090;2023-04-06T13:01:11;21.83;;;10.15;;
69894;SDS011;57172;52.034;5.090;2023-04-06T13:03:42;22.35;;;10.90;;
69894;SDS011;57172;52.034;5.090;2023-04-06T13:06:09;17.63;;;9.57;;
69894;SDS011;57172;52.034;5.090;2023-04-06T13:08:37;20.75;;;9.68;;
69894;SDS011;57172;52.034;5.090;2023-04-06T13:11:05;18.47;;;10.20;;
69894;SDS011;57172;52.034;5.090;2023-04-06T13:13:34;22.13;;;11.35;;
69894;SDS011;57172;52.034;5.090;2023-04-06T13:16:02;22.25;;;10.95;;
69894;SDS011;57172;52.034;5.090;2023-04-06T13:18:31;19.92;;;10.32;;
69894;SDS011;57172;52.034;5.090;2023-04-06T13:20:58;18.30;;;8.25;;
69894;SDS011;57172;52.034;5.090;2023-04-06T13:23:28;22.03;;;11.30;;
69894;SDS011;57172;52.034;5.090;2023-04-06T13:25:58;17.40;;;9.23;;
69894;SDS011;57172;52.034;5.090;2023-04-06T13:28:33;20.45;;;10.38;;
69894;SDS011;57172;52.034;5.090;2023-04-06T13:31:01;18.08;;;9.65;;
69894;SDS011;57172;52.034;5.090;2023-04-06T13:33:29;20.35;;;8.93;;
69894;SDS011;57172;52.034;5.090;2023-04-06T13:35:57;20.27;;;11.00;;
69894;SDS011;57172;52.034;5.090;2023-04-06T13:38:24;19.55;;;10.73;;
69894;SDS011;57172;52.034;5.090;2023-04-06T13:40:51;15.07;;;8.45;;
69894;SDS011;57172;52.034;5.090;2023-04-06T13:43:18;21.02;;;11.45;;
69894;SDS011;57172;52.034;5.090;2023-04-06T13:45:53;18.85;;;9.82;;
69894;SDS011;57172;52.034;5.090;2023-04-06T13:48:21;17.57;;;9.10;;
69894;SDS011;57172;52.034;5.090;2023-04-06T13:50:49;21.58;;;11.10;;
69894;SDS011;57172;52.034;5.090;2023-04-06T13:53:16;15.35;;;8.02;;
69894;SDS011;57172;52.034;5.090;2023-04-06T13:55:44;23.60;;;11.95;;
69894;SDS011;57172;52.034;5.090;2023-04-06T13:58:19;18.90;;;10.90;;
69894;SDS011;57172;52.034;5.090;2023-04-06T14:00:45;16.80;;;8.90;;
69894;SDS011;57172;52.034;5.090;2023-04-06T14:03:12;20.00;;;11.20;;
69894;SDS011;57172;52.034;5.090;2023-04-06T14:05:40;23.08;;;12.25;;
69894;SDS011;57172;52.034;5.090;2023-04-06T14:08:06;20.38;;;10.65;;
69894;SDS011;57172;52.034;5.090;2023-04-06T14:10:39;23.73;;;12.13;;
69894;SDS011;57172;52.034;5.090;2023-04-06T14:13:08;20.07;;;11.60;;
69894;SDS011;57172;52.034;5.090;2023-04-06T14:15:35;16.73;;;8.75;;
69894;SDS011;57172;52.034;5.090;2023-04-06T14:18:02;21.45;;;10.65;;
69894;SDS011;57172;52.034;5.090;2023-04-06T14:20:32;19.10;;;9.82;;
69894;SDS011;57172;52.034;5.090;2023-04-06T14:23:00;17.60;;;9.63;;
69894;SDS011;57172;52.034;5.090;2023-04-06T14:25:28;21.13;;;9.47;;
69894;SDS011;57172;52.034;5.090;2023-04-06T14:27:57;22.45;;;11.90;;
69894;SDS011;57172;52.034;5.090;2023-04-06T14:30:24;21.48;;;11.05;;
69894;SDS011;57172;52.034;5.090;2023-04-06T14:32:51;21.58;;;12.38;;
69894;SDS011;57172;52.034;5.090;2023-04-06T14:35:18;14.05;;;7.78;;
69894;SDS011;57172;52.034;5.090;2023-04-06T14:37:45;21.40;;;10.70;;
69894;SDS011;57172;52.034;5.090;2023-04-06T14:40:13;25.70;;;13.00;;
69894;SDS011;57172;52.034;5.090;2023-04-06T14:42:40;22.63;;;11.45;;
69894;SDS011;57172;52.034;5.090;2023-04-06T14:45:07;23.15;;;12.80;;
69894;SDS011;57172;52.034;5.090;2023-04-06T14:47:34;26.02;;;14.88;;
69894;SDS011;57172;52.034;5.090;2023-04-06T14:50:01;30.00;;;17.40;;
69894;SDS011;57172;52.034;5.090;2023-04-06T14:52:28;19.50;;;11.05;;